PWSweather.com
Personal Weather Stations
Station Observations
WISCHPK61
Green Bay Schmitt Park, Green Bay, WI 54311

Green Bay Schmitt ParkGreen Bay, WI 54311

Lat: 44.514277, Lon: -87.935067

Elevation: 735

Station Type: Acu Rite Pro Weather Center model 02032C

http://greenbayweathercam.com

High Low Average
Temperature 82.8°F28.2°C 52.7°F11.5°C 65.0°F18.3°C
Dew Point 81.7°F27.6°C 49.7°F9.8°C 60.7°F15.9°C
Winds 1.2 mph 1.9 kmh Calm Calm Calm SSWCalm SSW
Wind Gusts 1.2 mph1.9 kmh -- --
Humidity 99% 44% 88%
Pressure 29.36 in994.2 mb 29.22 in989.5 mb -
Precipitation 0.00 in0.0 mm - -
Hour Temp Dew Point Humidity Winds Wind Gusts Pressure Precip Precip Rate Daily Precip Total
12:00 AM 56.7°F13.7°C 56.4°F13.6°C 99% Calm Calm -- 29.22 in989.5 mb - 0.00 in0.0 mm 0.00 in0.0 mm
01:00 AM 55.5°F13.1°C 51.7°F10.9°C 87% Calm Calm -- 29.23 in989.8 mb - 0.00 in0.0 mm 0.00 in0.0 mm
02:00 AM 55.0°F12.8°C 54.7°F12.6°C 99% Calm Calm -- 29.25 in990.5 mb - 0.00 in0.0 mm 0.00 in0.0 mm
03:00 AM 54.3°F12.4°C 52.6°F11.4°C 94% Calm Calm -- 29.26 in990.9 mb - 0.00 in0.0 mm 0.00 in0.0 mm
04:00 AM 53.1°F11.7°C 51.7°F10.9°C 95% Calm Calm -- 29.27 in991.2 mb - 0.00 in0.0 mm 0.00 in0.0 mm
05:00 AM 52.7°F11.5°C 50.4°F10.2°C 92% Calm Calm -- 29.31 in992.6 mb - 0.00 in0.0 mm 0.00 in0.0 mm
06:00 AM 54.7°F12.6°C 54.1°F12.3°C 98% Calm Calm -- 29.31 in992.6 mb - 0.00 in0.0 mm 0.00 in0.0 mm
07:00 AM 58.8°F14.9°C 58.5°F14.7°C 99% Calm Calm -- 29.31 in992.6 mb - 0.00 in0.0 mm 0.00 in0.0 mm
08:00 AM 64.3°F17.9°C 64.1°F17.8°C 99% Calm Calm -- 29.30 in992.2 mb - 0.00 in0.0 mm 0.00 in0.0 mm
09:00 AM 67.6°F19.8°C 67.3°F19.6°C 99% Calm Calm 1.2 mph1.9 kmh 29.32 in992.9 mb - 0.00 in0.0 mm 0.00 in0.0 mm
10:00 AM 69.4°F20.8°C 59.2°F15.1°C 70% Calm Calm -- 29.33 in993.2 mb - 0.00 in0.0 mm 0.00 in0.0 mm
11:00 AM 73.7°F23.2°C 73.4°F23.0°C 99% Calm Calm 1.2 mph1.9 kmh 29.35 in993.9 mb - 0.00 in0.0 mm 0.00 in0.0 mm
12:00 PM 79.7°F26.5°C 55.9°F13.3°C 44% 1.2 mph NW1.9 kmh NW 1.2 mph1.9 kmh 29.34 in993.6 mb - 0.00 in0.0 mm 0.00 in0.0 mm
01:00 PM 82.8°F28.2°C 66.0°F18.9°C 57% Calm Calm -- 29.30 in992.2 mb - 0.00 in0.0 mm 0.00 in0.0 mm
02:00 PM 82.0°F27.8°C 81.7°F27.6°C 99% Calm Calm -- 29.31 in992.6 mb - 0.00 in0.0 mm 0.00 in0.0 mm
03:00 PM 77.4°F25.2°C 77.1°F25.1°C 99% Calm Calm -- 29.32 in992.9 mb - 0.00 in0.0 mm 0.00 in0.0 mm
04:00 PM 74.5°F23.6°C 74.2°F23.4°C 99% Calm Calm -- 29.32 in992.9 mb - 0.00 in0.0 mm 0.00 in0.0 mm
05:00 PM 72.1°F22.3°C 71.8°F22.1°C 99% Calm Calm -- 29.32 in992.9 mb - 0.00 in0.0 mm 0.00 in0.0 mm
06:00 PM 69.6°F20.9°C 52.7°F11.5°C 55% Calm Calm -- 29.32 in992.9 mb - 0.00 in0.0 mm 0.00 in0.0 mm
07:00 PM 66.6°F19.2°C 66.3°F19.1°C 99% Calm Calm -- 29.31 in992.6 mb - 0.00 in0.0 mm 0.00 in0.0 mm
08:00 PM 62.7°F17.1°C 52.8°F11.6°C 70% Calm Calm -- 29.32 in992.9 mb - 0.00 in0.0 mm 0.00 in0.0 mm
09:00 PM 60.3°F15.7°C 49.7°F9.8°C 68% Calm Calm -- 29.34 in993.6 mb - 0.00 in0.0 mm 0.00 in0.0 mm
10:00 PM 58.6°F14.8°C 58.3°F14.6°C 99% Calm Calm -- 29.35 in993.9 mb - 0.00 in0.0 mm 0.00 in0.0 mm
11:00 PM 57.0°F13.9°C 56.7°F13.7°C 99% Calm Calm -- 29.36 in994.2 mb - 0.00 in0.0 mm 0.00 in0.0 mm